Time;durP1;ratioP1;P1;durP2;ratioP2;P2;SDS_P1;SDS_P2;PMS_P1;PMS_P2;Temp;Humidity;BMP_temperature;BMP_pressure;BME280_temperature;BME280_humidity;BME280_pressure;Samples;Min_cycle;Max_cycle;Signal;HPM_P1;HPM_P2
2022/02/17 00:00:55;;;;;;;7.45;2.90;;;;;;;;;;4979882;28;20045;-72
2022/02/17 00:03:21;;;;;;;7.57;2.55;;;;;;;;;;4979719;28;20050;-72
2022/02/17 00:05:47;;;;;;;9.18;3.22;;;;;;;;;;4973997;28;20026;-72
2022/02/17 00:08:14;;;;;;;5.88;2.63;;;;;;;;;;4987067;28;20591;-72
2022/02/17 00:10:40;;;;;;;4.55;2.50;;;;;;;;;;4997117;28;20042;-71
2022/02/17 00:13:06;;;;;;;9.40;2.97;;;;;;;;;;4981343;28;20473;-72
2022/02/17 00:15:33;;;;;;;9.02;3.20;;;;;;;;;;4982559;28;20045;-71
2022/02/17 00:18:00;;;;;;;7.22;2.72;;;;;;;;;;4990674;28;20049;-71
2022/02/17 00:20:26;;;;;;;9.55;3.08;;;;;;;;;;4975676;28;20031;-70
2022/02/17 00:22:53;;;;;;;11.48;3.58;;;;;;;;;;4984519;28;20097;-71
2022/02/17 00:25:19;;;;;;;10.50;3.67;;;;;;;;;;4997470;28;20149;-72
2022/02/17 00:27:45;;;;;;;8.23;2.88;;;;;;;;;;4983605;28;20035;-72
2022/02/17 00:30:12;;;;;;;9.52;3.38;;;;;;;;;;4991318;28;20030;-72
2022/02/17 00:32:38;;;;;;;11.40;3.22;;;;;;;;;;4990457;28;20040;-72
2022/02/17 00:35:05;;;;;;;9.93;2.42;;;;;;;;;;4985790;28;20026;-72
2022/02/17 00:37:35;;;;;;;10.98;2.63;;;;;;;;;;4981355;28;20038;-71
2022/02/17 00:40:01;;;;;;;13.88;2.83;;;;;;;;;;4983974;28;20023;-71
2022/02/17 00:42:27;;;;;;;13.82;2.70;;;;;;;;;;4985992;28;20080;-71
2022/02/17 00:44:53;;;;;;;5.65;2.65;;;;;;;;;;4987909;28;20118;-72
2022/02/17 00:47:20;;;;;;;10.73;2.95;;;;;;;;;;4983961;28;20544;-72
2022/02/17 00:49:46;;;;;;;8.50;3.20;;;;;;;;;;4980547;28;20045;-72
2022/02/17 00:52:12;;;;;;;6.93;3.55;;;;;;;;;;4989525;28;20081;-72
2022/02/17 00:54:38;;;;;;;8.77;3.35;;;;;;;;;;4985929;28;20034;-73
2022/02/17 00:57:04;;;;;;;9.45;3.08;;;;;;;;;;4985422;28;20069;-72
2022/02/17 00:59:30;;;;;;;8.07;2.58;;;;;;;;;;4986694;28;20055;-72
2022/02/17 01:01:57;;;;;;;8.75;2.88;;;;;;;;;;4982473;28;20115;-71
2022/02/17 01:04:23;;;;;;;14.45;4.70;;;;;;;;;;4989127;28;20037;-71
2022/02/17 01:06:49;;;;;;;9.25;2.70;;;;;;;;;;4989004;28;20022;-71
2022/02/17 01:09:15;;;;;;;12.85;4.38;;;;;;;;;;4990188;28;20109;-71
2022/02/17 01:11:41;;;;;;;8.73;2.60;;;;;;;;;;4986605;28;20097;-72
2022/02/17 01:14:08;;;;;;;13.07;2.85;;;;;;;;;;4979964;28;20551;-72
2022/02/17 01:16:35;;;;;;;15.75;3.00;;;;;;;;;;5002906;28;20134;-71
2022/02/17 01:19:01;;;;;;;12.07;3.30;;;;;;;;;;4987973;28;20058;-71
2022/02/17 01:21:27;;;;;;;6.40;3.42;;;;;;;;;;4985872;28;20046;-71
2022/02/17 01:23:53;;;;;;;16.10;3.80;;;;;;;;;;4985687;28;20085;-72
2022/02/17 01:26:20;;;;;;;11.60;2.70;;;;;;;;;;4988243;28;20030;-72
2022/02/17 01:28:46;;;;;;;8.48;3.30;;;;;;;;;;4984029;28;20080;-73
2022/02/17 01:31:12;;;;;;;6.40;2.75;;;;;;;;;;4981083;28;20034;-71
2022/02/17 01:33:38;;;;;;;10.85;3.72;;;;;;;;;;4981358;28;20027;-71
2022/02/17 01:36:06;;;;;;;8.27;3.45;;;;;;;;;;5002902;28;20027;-73
2022/02/17 01:38:36;;;;;;;9.52;3.67;;;;;;;;;;4985518;28;20022;-72
2022/02/17 01:41:04;;;;;;;16.75;3.30;;;;;;;;;;5001596;28;20030;-72
2022/02/17 01:43:31;;;;;;;14.77;3.45;;;;;;;;;;4986102;28;20038;-71
2022/02/17 01:45:58;;;;;;;13.25;3.15;;;;;;;;;;4991065;28;20110;-72
2022/02/17 01:48:24;;;;;;;11.65;2.80;;;;;;;;;;4986165;28;20489;-73
2022/02/17 01:50:50;;;;;;;10.30;3.33;;;;;;;;;;4981319;28;20088;-73
2022/02/17 01:53:17;;;;;;;14.00;3.35;;;;;;;;;;4983524;28;20130;-72
2022/02/17 01:55:44;;;;;;;9.07;3.10;;;;;;;;;;4982856;28;20100;-73
2022/02/17 01:58:11;;;;;;;7.63;3.30;;;;;;;;;;4984626;28;20053;-72
2022/02/17 02:00:37;;;;;;;12.27;3.60;;;;;;;;;;4987416;28;20500;-72
2022/02/17 02:03:03;;;;;;;12.60;3.03;;;;;;;;;;4983913;28;20043;-72
2022/02/17 02:05:29;;;;;;;13.60;4.68;;;;;;;;;;4992530;28;20033;-71
2022/02/17 02:07:56;;;;;;;17.27;3.30;;;;;;;;;;4991603;28;20030;-72
2022/02/17 02:10:22;;;;;;;8.57;3.08;;;;;;;;;;4982563;28;20033;-74
2022/02/17 02:12:48;;;;;;;11.68;2.65;;;;;;;;;;4987174;28;20032;-70
2022/02/17 02:15:14;;;;;;;9.80;2.40;;;;;;;;;;4991951;28;20046;-72
2022/02/17 02:17:40;;;;;;;10.15;2.40;;;;;;;;;;4988030;28;20089;-73
2022/02/17 02:20:07;;;;;;;8.07;2.83;;;;;;;;;;4981717;28;20046;-73
2022/02/17 02:22:33;;;;;;;15.20;2.80;;;;;;;;;;4981075;28;20030;-69
2022/02/17 02:25:01;;;;;;;11.60;3.33;;;;;;;;;;4989773;28;20135;-72
2022/02/17 02:27:28;;;;;;;7.88;2.42;;;;;;;;;;4981626;28;20037;-71
2022/02/17 02:29:54;;;;;;;4.25;2.33;;;;;;;;;;4983163;28;20053;-70
2022/02/17 02:32:20;;;;;;;8.63;3.75;;;;;;;;;;4985220;28;20031;-71
2022/02/17 02:34:46;;;;;;;9.05;2.78;;;;;;;;;;4982892;28;20030;-72
2022/02/17 02:37:12;;;;;;;7.03;2.28;;;;;;;;;;4983949;28;20023;-70
2022/02/17 02:39:38;;;;;;;6.38;2.58;;;;;;;;;;4988064;28;20120;-72
2022/02/17 02:42:05;;;;;;;9.00;2.67;;;;;;;;;;4985726;28;20089;-70
2022/02/17 02:44:31;;;;;;;6.00;2.35;;;;;;;;;;5002778;28;20034;-72
2022/02/17 02:46:57;;;;;;;7.38;2.60;;;;;;;;;;4980925;28;20035;-71
2022/02/17 02:49:23;;;;;;;9.95;2.92;;;;;;;;;;4977956;28;20030;-69
2022/02/17 02:51:50;;;;;;;7.38;2.30;;;;;;;;;;4996638;28;20122;-69
2022/02/17 02:54:16;;;;;;;6.47;2.35;;;;;;;;;;4979999;28;20037;-71
2022/02/17 02:56:42;;;;;;;6.88;2.25;;;;;;;;;;5002026;28;20034;-71
2022/02/17 02:59:09;;;;;;;9.50;2.90;;;;;;;;;;4990104;28;20491;-70
2022/02/17 03:01:35;;;;;;;10.80;2.85;;;;;;;;;;4979712;28;20428;-68
2022/02/17 03:04:01;;;;;;;10.32;2.83;;;;;;;;;;4981713;28;20081;-69
2022/02/17 03:06:29;;;;;;;16.40;2.78;;;;;;;;;;4985880;28;20030;-71
2022/02/17 03:08:55;;;;;;;6.47;2.55;;;;;;;;;;4992919;28;20040;-72
2022/02/17 03:11:21;;;;;;;21.15;2.88;;;;;;;;;;4984079;28;20035;-71
2022/02/17 03:13:47;;;;;;;6.00;2.55;;;;;;;;;;4980885;28;20030;-72
2022/02/17 03:16:14;;;;;;;6.18;2.50;;;;;;;;;;4986653;28;20087;-73
2022/02/17 03:18:40;;;;;;;5.70;2.83;;;;;;;;;;4987134;28;20389;-71
2022/02/17 03:21:06;;;;;;;7.75;3.08;;;;;;;;;;4997042;28;20037;-72
2022/02/17 03:23:33;;;;;;;6.22;2.50;;;;;;;;;;4982486;28;20034;-70
2022/02/17 03:26:00;;;;;;;8.73;2.75;;;;;;;;;;4982589;28;20100;-72
2022/02/17 03:28:26;;;;;;;4.47;2.00;;;;;;;;;;4979079;28;20031;-71
2022/02/17 03:30:54;;;;;;;12.20;2.67;;;;;;;;;;4985875;28;20076;-72
2022/02/17 03:33:21;;;;;;;6.32;2.85;;;;;;;;;;4985487;28;20512;-72
2022/02/17 03:35:47;;;;;;;16.20;3.78;;;;;;;;;;4978141;28;20397;-71
2022/02/17 03:38:13;;;;;;;6.28;2.55;;;;;;;;;;4986550;28;20478;-73
2022/02/17 03:40:39;;;;;;;7.35;2.20;;;;;;;;;;4985408;28;20034;-73
2022/02/17 03:43:06;;;;;;;6.68;2.58;;;;;;;;;;4983057;28;20513;-72
2022/02/17 03:45:32;;;;;;;4.28;1.90;;;;;;;;;;4976140;28;20031;-72
2022/02/17 03:47:58;;;;;;;7.45;2.00;;;;;;;;;;4977812;28;20088;-72
2022/02/17 03:50:24;;;;;;;3.72;1.80;;;;;;;;;;4984585;28;20030;-72
2022/02/17 03:52:50;;;;;;;5.75;1.52;;;;;;;;;;4985097;28;20027;-72
2022/02/17 03:55:16;;;;;;;4.20;1.55;;;;;;;;;;4984179;28;20030;-71
2022/02/17 03:57:44;;;;;;;1.50;1.40;;;;;;;;;;4976307;28;20040;-73
2022/02/17 04:00:10;;;;;;;2.17;1.42;;;;;;;;;;4975848;28;20414;-71
2022/02/17 04:02:36;;;;;;;2.75;1.48;;;;;;;;;;4979043;28;20045;-71
2022/02/17 04:05:03;;;;;;;4.50;1.83;;;;;;;;;;4980798;28;20031;-72
2022/02/17 04:07:29;;;;;;;3.85;1.40;;;;;;;;;;4979328;28;20388;-72
2022/02/17 04:09:55;;;;;;;2.15;1.27;;;;;;;;;;4982616;28;20088;-72
2022/02/17 04:12:21;;;;;;;2.60;1.55;;;;;;;;;;4988496;28;20031;-72
2022/02/17 04:14:47;;;;;;;3.10;1.60;;;;;;;;;;4985858;28;20022;-71
2022/02/17 04:17:15;;;;;;;4.53;1.85;;;;;;;;;;4982457;28;20030;-72
2022/02/17 04:19:41;;;;;;;2.35;1.60;;;;;;;;;;4981516;28;20942;-72
2022/02/17 04:22:08;;;;;;;3.67;1.27;;;;;;;;;;4999172;28;20034;-73
2022/02/17 04:24:34;;;;;;;1.35;1.25;;;;;;;;;;4981139;28;20503;-72
2022/02/17 04:27:01;;;;;;;3.95;2.13;;;;;;;;;;4982509;28;20023;-72
2022/02/17 04:29:27;;;;;;;3.00;1.60;;;;;;;;;;4998645;28;20496;-71
2022/02/17 04:31:53;;;;;;;2.63;1.33;;;;;;;;;;4993553;28;20048;-72
2022/02/17 04:34:19;;;;;;;4.20;1.73;;;;;;;;;;4983898;28;20082;-72
2022/02/17 04:36:45;;;;;;;2.13;1.35;;;;;;;;;;5008448;28;20037;-75
2022/02/17 04:39:11;;;;;;;3.45;1.63;;;;;;;;;;4993630;28;20489;-72
2022/02/17 04:44:22;;;;;;;3.10;1.40;;;;;;;;;;4981284;28;20041;-71
2022/02/17 04:46:48;;;;;;;1.83;1.52;;;;;;;;;;4980001;28;20022;-70
2022/02/17 04:49:15;;;;;;;3.17;1.90;;;;;;;;;;4982151;28;20061;-73
2022/02/17 04:51:41;;;;;;;5.85;1.60;;;;;;;;;;4983345;28;20436;-70
2022/02/17 04:54:07;;;;;;;3.53;1.77;;;;;;;;;;4983763;28;20062;-70
2022/02/17 04:56:34;;;;;;;4.13;1.88;;;;;;;;;;4980644;28;20048;-71
2022/02/17 04:59:00;;;;;;;3.05;1.40;;;;;;;;;;4984351;28;20030;-70
2022/02/17 05:01:26;;;;;;;3.65;1.80;;;;;;;;;;4976511;28;20027;-71
2022/02/17 05:03:52;;;;;;;3.88;1.80;;;;;;;;;;4981853;28;20041;-70
2022/02/17 05:06:18;;;;;;;4.38;1.80;;;;;;;;;;4983855;28;20129;-71
2022/02/17 05:08:45;;;;;;;5.82;1.70;;;;;;;;;;4982913;28;20529;-71
2022/02/17 05:11:11;;;;;;;7.22;2.15;;;;;;;;;;4984682;28;20064;-71
2022/02/17 05:13:37;;;;;;;6.50;2.40;;;;;;;;;;4983201;28;20431;-71
2022/02/17 05:16:03;;;;;;;7.43;2.05;;;;;;;;;;4989590;28;20117;-70
2022/02/17 05:18:30;;;;;;;8.27;2.03;;;;;;;;;;4987836;28;20049;-71
2022/02/17 05:20:56;;;;;;;5.95;1.98;;;;;;;;;;4985704;28;20030;-71
2022/02/17 05:23:22;;;;;;;2.90;1.60;;;;;;;;;;4985278;28;20049;-71
2022/02/17 05:25:49;;;;;;;4.43;1.48;;;;;;;;;;4984104;28;20030;-71
2022/02/17 05:28:16;;;;;;;4.95;1.50;;;;;;;;;;4989646;28;20481;-71
2022/02/17 05:30:43;;;;;;;3.13;1.52;;;;;;;;;;4979912;28;20061;-72
2022/02/17 05:33:10;;;;;;;3.28;1.50;;;;;;;;;;4981216;28;20034;-72
2022/02/17 05:35:36;;;;;;;4.93;1.50;;;;;;;;;;4978233;28;20485;-71
2022/02/17 05:38:02;;;;;;;5.53;1.75;;;;;;;;;;4984813;28;20030;-71
2022/02/17 05:40:28;;;;;;;4.55;2.00;;;;;;;;;;4982807;28;20108;-72
2022/02/17 05:42:54;;;;;;;5.10;1.80;;;;;;;;;;4977764;28;20071;-69
2022/02/17 05:45:20;;;;;;;3.20;1.65;;;;;;;;;;4981910;28;20446;-71
2022/02/17 05:47:46;;;;;;;7.70;1.88;;;;;;;;;;4997854;28;20085;-71
2022/02/17 05:50:12;;;;;;;4.70;1.50;;;;;;;;;;4996592;28;20035;-71
2022/02/17 05:52:39;;;;;;;4.10;1.63;;;;;;;;;;4988811;28;20030;-71
2022/02/17 05:55:05;;;;;;;9.73;2.97;;;;;;;;;;4984643;28;20022;-71
2022/02/17 05:57:31;;;;;;;3.42;1.88;;;;;;;;;;4980009;28;20019;-70
2022/02/17 05:59:59;;;;;;;4.38;1.95;;;;;;;;;;4983054;28;20074;-71
2022/02/17 06:02:26;;;;;;;4.53;1.85;;;;;;;;;;4982355;28;20042;-70
2022/02/17 06:04:53;;;;;;;4.30;1.80;;;;;;;;;;4977974;28;20038;-70
2022/02/17 06:07:19;;;;;;;5.57;2.05;;;;;;;;;;4999050;28;20501;-71
2022/02/17 06:09:45;;;;;;;6.88;1.52;;;;;;;;;;4981335;28;20397;-71
2022/02/17 06:12:12;;;;;;;3.63;1.75;;;;;;;;;;4983343;28;20030;-71
2022/02/17 06:14:38;;;;;;;3.20;1.85;;;;;;;;;;4977755;28;20026;-71
2022/02/17 06:17:04;;;;;;;5.47;2.17;;;;;;;;;;4985401;28;20108;-71
2022/02/17 06:19:31;;;;;;;10.05;2.20;;;;;;;;;;4976368;28;20034;-71
2022/02/17 06:21:57;;;;;;;6.35;1.98;;;;;;;;;;4985712;28;20133;-71
2022/02/17 06:24:23;;;;;;;9.18;2.55;;;;;;;;;;4986839;28;20100;-71
2022/02/17 06:26:49;;;;;;;3.53;2.35;;;;;;;;;;4993396;28;20026;-72
2022/02/17 06:29:15;;;;;;;5.10;1.95;;;;;;;;;;4980616;28;20027;-71
2022/02/17 06:31:44;;;;;;;4.03;2.28;;;;;;;;;;4984780;28;20037;-71
2022/02/17 06:34:10;;;;;;;6.85;3.17;;;;;;;;;;4990175;28;20023;-71
2022/02/17 06:36:36;;;;;;;9.02;2.72;;;;;;;;;;4983133;28;20064;-70
2022/02/17 06:39:02;;;;;;;4.38;1.73;;;;;;;;;;4983558;28;20019;-71
2022/02/17 06:41:28;;;;;;;8.55;1.92;;;;;;;;;;4984864;28;20077;-72
2022/02/17 06:43:54;;;;;;;12.70;2.45;;;;;;;;;;4981802;28;20034;-71
2022/02/17 06:46:20;;;;;;;8.27;2.17;;;;;;;;;;4981676;28;20468;-72
2022/02/17 06:48:46;;;;;;;6.65;3.65;;;;;;;;;;4980599;28;20449;-72
2022/02/17 06:51:13;;;;;;;5.30;2.25;;;;;;;;;;4994963;28;20072;-72
2022/02/17 06:53:39;;;;;;;6.95;2.33;;;;;;;;;;4984824;28;20026;-71
2022/02/17 06:56:06;;;;;;;5.65;2.72;;;;;;;;;;4986156;28;20479;-72
2022/02/17 06:58:33;;;;;;;8.10;2.22;;;;;;;;;;4986245;28;20057;-70
2022/02/17 07:00:59;;;;;;;9.45;2.10;;;;;;;;;;4988148;28;20062;-71
2022/02/17 07:03:25;;;;;;;11.77;2.28;;;;;;;;;;4989489;28;20085;-71
2022/02/17 07:05:52;;;;;;;8.20;2.22;;;;;;;;;;4996593;28;20049;-71
2022/02/17 07:08:18;;;;;;;5.57;2.47;;;;;;;;;;4983319;28;20030;-71
2022/02/17 07:10:56;;;;;;;4.65;2.20;;;;;;;;;;4989855;28;20035;-70
2022/02/17 07:13:24;;;;;;;9.45;2.65;;;;;;;;;;4981833;28;20089;-71
2022/02/17 07:15:51;;;;;;;13.38;2.67;;;;;;;;;;4980539;28;20043;-72
2022/02/17 07:18:19;;;;;;;7.05;2.00;;;;;;;;;;4998383;28;20425;-71
2022/02/17 07:20:46;;;;;;;5.25;2.05;;;;;;;;;;4984851;28;20018;-71
2022/02/17 07:23:14;;;;;;;7.05;2.33;;;;;;;;;;4981056;28;20027;-71
2022/02/17 07:25:40;;;;;;;6.80;2.58;;;;;;;;;;4997367;28;20109;-71
2022/02/17 07:28:06;;;;;;;8.07;2.40;;;;;;;;;;4976859;28;20791;-71
2022/02/17 07:30:33;;;;;;;6.30;2.30;;;;;;;;;;4982494;28;20092;-69
2022/02/17 07:32:59;;;;;;;10.25;3.35;;;;;;;;;;4985929;28;20058;-72
2022/02/17 07:35:25;;;;;;;5.65;2.30;;;;;;;;;;4980326;28;20034;-70
2022/02/17 07:37:51;;;;;;;7.53;2.25;;;;;;;;;;4985192;28;20105;-71
2022/02/17 07:40:17;;;;;;;5.18;2.30;;;;;;;;;;4985651;28;20113;-73
2022/02/17 07:42:45;;;;;;;8.65;2.75;;;;;;;;;;5000327;28;20378;-73
2022/02/17 07:45:12;;;;;;;9.32;2.58;;;;;;;;;;4977480;28;20053;-73
2022/02/17 07:47:45;;;;;;;8.77;2.78;;;;;;;;;;4985605;28;20038;-73
2022/02/17 07:50:18;;;;;;;12.55;3.30;;;;;;;;;;4982570;28;20030;-72
2022/02/17 07:52:44;;;;;;;5.32;2.47;;;;;;;;;;4972971;28;20027;-72
2022/02/17 07:55:11;;;;;;;5.55;2.30;;;;;;;;;;4978840;28;20097;-72
2022/02/17 07:57:37;;;;;;;10.38;2.97;;;;;;;;;;4980646;28;20023;-73
2022/02/17 08:00:05;;;;;;;13.65;2.90;;;;;;;;;;4980293;28;20072;-72
2022/02/17 08:02:31;;;;;;;7.40;2.63;;;;;;;;;;4984092;28;20053;-73
2022/02/17 08:04:59;;;;;;;12.55;3.22;;;;;;;;;;4974804;28;20062;-72
2022/02/17 08:07:25;;;;;;;15.30;4.00;;;;;;;;;;4983821;28;20061;-72
2022/02/17 08:09:53;;;;;;;9.75;2.88;;;;;;;;;;4979134;28;20134;-73
2022/02/17 08:12:19;;;;;;;8.82;3.28;;;;;;;;;;4980823;28;20030;-73
2022/02/17 08:14:46;;;;;;;5.97;2.65;;;;;;;;;;4979734;28;20079;-73
2022/02/17 08:17:12;;;;;;;9.77;4.30;;;;;;;;;;4979909;28;20038;-72
2022/02/17 08:19:38;;;;;;;14.23;2.97;;;;;;;;;;4983336;28;20474;-72
2022/02/17 08:22:04;;;;;;;9.30;2.88;;;;;;;;;;5001148;28;20047;-72
2022/02/17 08:24:30;;;;;;;12.30;3.33;;;;;;;;;;4984738;28;20033;-72
2022/02/17 08:26:56;;;;;;;6.95;2.47;;;;;;;;;;4972533;28;20033;-73
2022/02/17 08:29:23;;;;;;;5.80;3.42;;;;;;;;;;4984883;28;20038;-71
2022/02/17 08:31:52;;;;;;;9.93;3.00;;;;;;;;;;4992540;28;20536;-72
2022/02/17 08:34:18;;;;;;;15.60;2.90;;;;;;;;;;4984124;28;20033;-72
2022/02/17 08:36:45;;;;;;;7.53;3.00;;;;;;;;;;4977429;28;20053;-72
2022/02/17 08:39:11;;;;;;;13.60;3.58;;;;;;;;;;4983615;28;20420;-72
2022/02/17 08:41:37;;;;;;;8.13;3.28;;;;;;;;;;4978177;28;20580;-73
2022/02/17 08:44:07;;;;;;;12.98;3.08;;;;;;;;;;4978047;28;20073;-73
2022/02/17 08:46:34;;;;;;;8.27;2.97;;;;;;;;;;5000136;28;20401;-72
2022/02/17 08:49:00;;;;;;;13.25;2.92;;;;;;;;;;4989202;28;20022;-72
2022/02/17 08:51:29;;;;;;;9.63;3.85;;;;;;;;;;4985886;28;20370;-73
2022/02/17 08:53:55;;;;;;;9.02;2.67;;;;;;;;;;4983461;28;20027;-72
2022/02/17 08:56:21;;;;;;;7.78;2.80;;;;;;;;;;4981061;28;20031;-73
2022/02/17 08:58:47;;;;;;;16.52;3.50;;;;;;;;;;4989261;28;20018;-72
2022/02/17 09:01:14;;;;;;;10.25;2.95;;;;;;;;;;4983277;28;20051;-73
2022/02/17 09:03:40;;;;;;;13.68;3.30;;;;;;;;;;4991878;28;20388;-73
2022/02/17 09:06:06;;;;;;;9.30;3.05;;;;;;;;;;4984283;28;20396;-73
2022/02/17 09:08:32;;;;;;;8.32;2.33;;;;;;;;;;4989323;28;20029;-72
2022/02/17 09:10:58;;;;;;;14.88;3.72;;;;;;;;;;4979090;28;20035;-74
2022/02/17 09:13:24;;;;;;;9.00;3.22;;;;;;;;;;4997878;28;20117;-74
2022/02/17 09:15:50;;;;;;;8.82;3.35;;;;;;;;;;4990324;28;20050;-73
2022/02/17 09:18:17;;;;;;;8.23;2.80;;;;;;;;;;5000073;28;20027;-73
2022/02/17 09:20:43;;;;;;;13.45;3.10;;;;;;;;;;5000085;28;20381;-73
2022/02/17 09:23:09;;;;;;;9.15;3.08;;;;;;;;;;4987142;28;20031;-72
2022/02/17 09:25:36;;;;;;;6.88;2.72;;;;;;;;;;4987267;28;20053;-72
2022/02/17 09:28:06;;;;;;;5.93;3.15;;;;;;;;;;4990684;28;20078;-72
2022/02/17 09:30:32;;;;;;;10.57;2.88;;;;;;;;;;4989802;28;20389;-72
2022/02/17 09:32:58;;;;;;;6.13;2.58;;;;;;;;;;5002158;28;20543;-74
2022/02/17 09:35:24;;;;;;;7.47;2.45;;;;;;;;;;4992324;28;20062;-74
2022/02/17 09:37:51;;;;;;;7.45;2.75;;;;;;;;;;4997275;28;20099;-72
2022/02/17 09:40:20;;;;;;;3.20;1.80;;;;;;;;;;5009024;28;20026;-73
2022/02/17 09:42:47;;;;;;;12.05;2.33;;;;;;;;;;4988763;28;20026;-72
2022/02/17 09:45:13;;;;;;;5.28;1.98;;;;;;;;;;4984322;28;20027;-73
2022/02/17 09:47:43;;;;;;;8.30;2.25;;;;;;;;;;4982633;28;20030;-73
2022/02/17 09:50:10;;;;;;;3.13;1.83;;;;;;;;;;4983324;28;20489;-74
2022/02/17 09:52:38;;;;;;;5.13;1.85;;;;;;;;;;4992241;28;20027;-72
2022/02/17 09:55:05;;;;;;;4.13;2.20;;;;;;;;;;4978613;28;20505;-73
2022/02/17 09:57:32;;;;;;;4.75;2.20;;;;;;;;;;4979958;28;20035;-72
2022/02/17 09:59:59;;;;;;;6.85;2.00;;;;;;;;;;4980576;28;20023;-72
2022/02/17 10:02:26;;;;;;;6.50;2.05;;;;;;;;;;4980036;28;20374;-73
2022/02/17 10:04:56;;;;;;;6.32;1.75;;;;;;;;;;4981038;28;20567;-71
2022/02/17 10:07:30;;;;;;;2.72;1.83;;;;;;;;;;4983726;28;20037;-72
2022/02/17 10:10:00;;;;;;;4.68;1.80;;;;;;;;;;4984051;28;20035;-72
2022/02/17 10:12:28;;;;;;;5.05;1.60;;;;;;;;;;4987719;28;20026;-72
2022/02/17 10:14:58;;;;;;;3.42;1.95;;;;;;;;;;4983636;28;20039;-71
2022/02/17 10:17:24;;;;;;;3.20;2.15;;;;;;;;;;4989220;28;20556;-72
2022/02/17 10:19:52;;;;;;;2.28;2.03;;;;;;;;;;4988940;28;20150;-73
2022/02/17 10:22:30;;;;;;;3.88;2.22;;;;;;;;;;4986550;28;20050;-70
2022/02/17 10:24:57;;;;;;;2.53;1.58;;;;;;;;;;4987606;28;20018;-74
2022/02/17 10:27:27;;;;;;;4.30;1.67;;;;;;;;;;4989360;28;20051;-73
2022/02/17 10:29:59;;;;;;;2.95;1.20;;;;;;;;;;4980054;28;20038;-73
2022/02/17 10:32:26;;;;;;;1.67;1.58;;;;;;;;;;4988381;28;20045;-73
2022/02/17 10:35:09;;;;;;;2.70;2.00;;;;;;;;;;4987604;28;20018;-71
2022/02/17 10:37:54;;;;;;;2.55;1.63;;;;;;;;;;4977571;28;20042;-72
2022/02/17 10:40:24;;;;;;;2.92;1.88;;;;;;;;;;4988756;28;20041;-73
2022/02/17 10:43:00;;;;;;;3.72;1.80;;;;;;;;;;4988098;28;20068;-73
2022/02/17 10:45:26;;;;;;;3.47;2.30;;;;;;;;;;4981214;28;20023;-73
2022/02/17 10:47:52;;;;;;;3.92;1.88;;;;;;;;;;4986161;28;20049;-72
2022/02/17 10:50:19;;;;;;;5.63;2.28;;;;;;;;;;4989471;28;20856;-72
2022/02/17 10:52:46;;;;;;;3.90;1.80;;;;;;;;;;4985501;28;20026;-71
2022/02/17 10:55:20;;;;;;;5.65;1.83;;;;;;;;;;4984970;28;20379;-72
2022/02/17 10:57:47;;;;;;;5.47;2.25;;;;;;;;;;4981750;28;20535;-73
2022/02/17 11:00:20;;;;;;;2.22;1.67;;;;;;;;;;5004988;28;20066;-73
2022/02/17 11:02:47;;;;;;;6.32;3.08;;;;;;;;;;4983721;28;20026;-71
2022/02/17 11:05:16;;;;;;;4.15;2.10;;;;;;;;;;4997556;28;20022;-74
2022/02/17 11:07:43;;;;;;;4.78;3.00;;;;;;;;;;4998659;28;20658;-71
2022/02/17 11:10:10;;;;;;;3.67;2.00;;;;;;;;;;4986142;28;20393;-73
2022/02/17 11:12:39;;;;;;;3.97;2.70;;;;;;;;;;4984903;28;20019;-73
2022/02/17 11:15:06;;;;;;;4.20;1.95;;;;;;;;;;4991381;28;20046;-72
2022/02/17 11:17:38;;;;;;;3.47;2.15;;;;;;;;;;4985577;28;20050;-71
2022/02/17 11:20:11;;;;;;;5.85;2.30;;;;;;;;;;4980353;28;20022;-73
2022/02/17 11:22:40;;;;;;;3.90;2.10;;;;;;;;;;4993152;28;20126;-73
2022/02/17 11:25:06;;;;;;;4.40;2.83;;;;;;;;;;4980383;28;20049;-73
2022/02/17 11:27:32;;;;;;;5.35;2.22;;;;;;;;;;4981837;28;20617;-73
2022/02/17 11:30:18;;;;;;;2.55;1.92;;;;;;;;;;4979220;28;20045;-72
2022/02/17 11:32:45;;;;;;;;;;;;;;;;;;4980636;28;20701;-71
2022/02/17 11:35:30;;;;;;;3.53;2.15;;;;;;;;;;4993985;28;19912;-73
2022/02/17 11:37:56;;;;;;;5.22;3.50;;;;;;;;;;4980788;28;20771;-74
2022/02/17 11:40:22;;;;;;;3.13;2.30;;;;;;;;;;4979852;28;20031;-73
2022/02/17 11:43:02;;;;;;;5.13;2.03;;;;;;;;;;4990050;28;20129;-72
2022/02/17 11:45:28;;;;;;;3.25;2.03;;;;;;;;;;4977007;28;20030;-74
2022/02/17 11:48:01;;;;;;;2.80;2.05;;;;;;;;;;4981111;28;20477;-72
2022/02/17 11:50:41;;;;;;;3.60;2.05;;;;;;;;;;4986869;28;20030;-73
2022/02/17 11:53:24;;;;;;;2.65;2.45;;;;;;;;;;4986772;28;20640;-73
2022/02/17 11:55:50;;;;;;;3.42;2.20;;;;;;;;;;4985276;28;20030;-72
2022/02/17 11:58:34;;;;;;;4.28;2.10;;;;;;;;;;4989576;28;20385;-73
2022/02/17 12:01:20;;;;;;;7.47;2.30;;;;;;;;;;4992630;28;20030;-73
2022/02/17 12:03:47;;;;;;;;;;;;;;;;;;4978389;28;20058;-71
2022/02/17 12:06:32;;;;;;;6.38;2.75;;;;;;;;;;4986858;28;19917;-73
2022/02/17 12:08:58;;;;;;;3.03;1.97;;;;;;;;;;4978257;28;20027;-74
2022/02/17 12:11:28;;;;;;;3.40;2.03;;;;;;;;;;4986789;28;20038;-73
2022/02/17 12:13:54;;;;;;;3.47;2.08;;;;;;;;;;4978788;28;20049;-73
2022/02/17 12:16:39;;;;;;;3.58;2.35;;;;;;;;;;4985878;28;20524;-73
2022/02/17 12:19:15;;;;;;;6.57;2.60;;;;;;;;;;4985020;28;20429;-74
2022/02/17 12:21:46;;;;;;;3.17;2.40;;;;;;;;;;4994551;28;20746;-74
2022/02/17 12:24:13;;;;;;;2.90;2.03;;;;;;;;;;4983140;28;20504;-74
2022/02/17 12:26:47;;;;;;;7.20;3.13;;;;;;;;;;4996016;28;20030;-73
2022/02/17 12:29:34;;;;;;;3.72;2.38;;;;;;;;;;4984192;28;20038;-73
2022/02/17 12:32:01;;;;;;;6.25;2.95;;;;;;;;;;4982773;28;20034;-73
2022/02/17 12:34:28;;;;;;;8.95;2.85;;;;;;;;;;4979580;28;20050;-73
2022/02/17 12:36:55;;;;;;;3.53;2.05;;;;;;;;;;4971490;28;20027;-74
2022/02/17 12:39:25;;;;;;;4.97;2.38;;;;;;;;;;4993532;28;20109;-73
2022/02/17 12:42:13;;;;;;;3.05;2.05;;;;;;;;;;4998897;28;20113;-72
2022/02/17 12:44:41;;;;;;;4.82;2.28;;;;;;;;;;5001842;28;20042;-73
2022/02/17 12:47:08;;;;;;;6.70;2.55;;;;;;;;;;4987107;28;20497;-73
2022/02/17 12:49:34;;;;;;;6.18;3.00;;;;;;;;;;4982710;28;20026;-75
2022/02/17 12:52:08;;;;;;;2.70;2.25;;;;;;;;;;5001641;28;20111;-75
2022/02/17 12:54:34;;;;;;;14.95;5.70;;;;;;;;;;4980184;28;20030;-73
2022/02/17 12:57:16;;;;;;;4.78;2.38;;;;;;;;;;4983136;28;20077;-75
2022/02/17 12:59:44;;;;;;;2.90;2.45;;;;;;;;;;4982334;28;20053;-74
2022/02/17 13:02:10;;;;;;;4.57;2.78;;;;;;;;;;4988409;28;20025;-75
2022/02/17 13:04:39;;;;;;;7.03;2.65;;;;;;;;;;4987036;28;20038;-72
2022/02/17 13:07:08;;;;;;;2.80;1.98;;;;;;;;;;4992963;28;20026;-74
2022/02/17 13:09:35;;;;;;;2.25;2.00;;;;;;;;;;4984909;28;20019;-72
2022/02/17 13:12:06;;;;;;;3.10;1.80;;;;;;;;;;4986760;28;20070;-75
2022/02/17 13:14:45;;;;;;;2.92;1.73;;;;;;;;;;4990662;28;20077;-74
2022/02/17 13:17:12;;;;;;;3.10;2.10;;;;;;;;;;4990982;28;20415;-76
2022/02/17 13:19:48;;;;;;;4.13;2.40;;;;;;;;;;4989378;28;20057;-75
2022/02/17 13:22:15;;;;;;;5.95;2.35;;;;;;;;;;4985758;28;20041;-73
2022/02/17 13:24:42;;;;;;;5.75;2.13;;;;;;;;;;4985799;28;20122;-74
2022/02/17 13:27:08;;;;;;;4.45;2.10;;;;;;;;;;4981368;28;20066;-75
2022/02/17 13:29:35;;;;;;;3.38;2.00;;;;;;;;;;4985479;28;20038;-73
2022/02/17 13:32:11;;;;;;;3.25;2.33;;;;;;;;;;5003613;28;20045;-73
2022/02/17 13:34:38;;;;;;;4.10;1.80;;;;;;;;;;4988691;28;20080;-73
2022/02/17 13:37:07;;;;;;;5.53;1.98;;;;;;;;;;4979471;28;20031;-72
2022/02/17 13:39:34;;;;;;;4.13;2.20;;;;;;;;;;4988056;28;20077;-74
2022/02/17 13:42:05;;;;;;;3.90;2.15;;;;;;;;;;4984237;28;20114;-73
2022/02/17 13:44:33;;;;;;;3.25;1.95;;;;;;;;;;5001887;28;20030;-72
2022/02/17 13:46:59;;;;;;;5.97;2.05;;;;;;;;;;4983153;28;20031;-73
2022/02/17 13:49:26;;;;;;;4.60;2.65;;;;;;;;;;4986089;28;20084;-73
2022/02/17 13:51:52;;;;;;;9.93;3.05;;;;;;;;;;4994324;28;20040;-73
2022/02/17 13:54:18;;;;;;;5.03;2.28;;;;;;;;;;4986684;28;20022;-74
2022/02/17 13:56:45;;;;;;;4.30;2.00;;;;;;;;;;4993428;28;20074;-71
2022/02/17 13:59:11;;;;;;;6.50;2.03;;;;;;;;;;5001215;28;20031;-72
2022/02/17 14:01:41;;;;;;;11.32;2.67;;;;;;;;;;5001585;28;20117;-71
2022/02/17 14:04:27;;;;;;;6.05;1.95;;;;;;;;;;4991732;28;20040;-73
2022/02/17 14:06:55;;;;;;;10.13;2.33;;;;;;;;;;4996099;28;20051;-72
2022/02/17 14:09:21;;;;;;;3.40;2.20;;;;;;;;;;4988209;28;20030;-73
2022/02/17 14:11:49;;;;;;;16.30;4.13;;;;;;;;;;4988891;28;20026;-73
2022/02/17 14:14:15;;;;;;;6.05;2.13;;;;;;;;;;4998035;28;20498;-72
2022/02/17 14:16:43;;;;;;;2.30;1.83;;;;;;;;;;4988704;28;20058;-74
2022/02/17 14:19:09;;;;;;;3.25;1.95;;;;;;;;;;4988033;28;20485;-73
2022/02/17 14:21:38;;;;;;;2.17;1.98;;;;;;;;;;4983645;28;20042;-75
2022/02/17 14:24:05;;;;;;;2.08;1.60;;;;;;;;;;4986833;28;20026;-75
2022/02/17 14:26:31;;;;;;;1.92;1.70;;;;;;;;;;4990165;28;20054;-73
2022/02/17 14:28:57;;;;;;;2.35;1.95;;;;;;;;;;4987572;28;20496;-73
2022/02/17 14:31:23;;;;;;;3.95;3.53;;;;;;;;;;4978304;28;20057;-73
2022/02/17 14:33:49;;;;;;;3.33;2.40;;;;;;;;;;4985467;28;20031;-74
2022/02/17 14:36:16;;;;;;;4.03;2.67;;;;;;;;;;4998183;28;20022;-74
2022/02/17 14:38:42;;;;;;;34.88;23.40;;;;;;;;;;4997784;28;20141;-73
2022/02/17 14:41:09;;;;;;;10.95;8.40;;;;;;;;;;4979645;28;20058;-74
2022/02/17 14:43:35;;;;;;;30.30;17.90;;;;;;;;;;4998869;28;20038;-75
2022/02/17 14:46:04;;;;;;;30.75;18.48;;;;;;;;;;4982444;28;20058;-73